Time;durP1;ratioP1;P1;durP2;ratioP2;P2;SDS_P1;SDS_P2;PMS_P1;PMS_P2;Temp;Humidity;BMP_temperature;BMP_pressure;BME280_temperature;BME280_humidity;BME280_pressure;Samples;Min_cycle;Max_cycle;Signal;HPM_P1;HPM_P2
2022/01/13 08:29:25;;;;;;;0.10;0.10;;;3.50;99.90;;;;;;6308934;22;20081;-85
2022/01/13 08:31:52;;;;;;;0.10;0.10;;;;;;;;;;6282276;22;20019;-85
2022/01/13 08:34:19;;;;;;;0.10;0.10;;;;;;;;;;6256475;22;20408;-85
2022/01/13 08:36:46;;;;;;;0.10;0.10;;;;;;;;;;6282539;22;20015;-85
2022/01/13 08:39:14;;;;;;;0.10;0.10;;;;;;;;;;6282578;22;20015;-84
2022/01/13 08:41:42;;;;;;;0.10;0.10;;;3.70;99.90;;;;;;6255704;22;20376;-86
2022/01/13 08:44:09;;;;;;;0.10;0.10;;;;;;;;;;6254871;22;20031;-87
2022/01/13 08:46:38;;;;;;;0.10;0.10;;;3.80;99.90;;;;;;6290797;22;20019;-86
2022/01/13 08:49:05;;;;;;;0.10;0.10;;;3.90;99.90;;;;;;6280177;22;20392;-87
2022/01/13 08:51:32;;;;;;;0.00;0.00;;;;;;;;;;6255271;22;20069;-86
2022/01/13 08:53:59;;;;;;;0.10;0.10;;;;;;;;;;6280800;22;20401;-87
2022/01/13 08:56:27;;;;;;;0.10;0.10;;;;;;;;;;6307736;22;20019;-86
2022/01/13 08:58:54;;;;;;;0.10;0.10;;;;;;;;;;6279777;22;20046;-86
2022/01/13 09:01:22;;;;;;;0.10;0.10;;;;;;;;;;6279870;22;20088;-87
2022/01/13 09:03:50;;;;;;;0.10;0.10;;;3.90;99.90;;;;;;6281174;22;20361;-87
2022/01/13 09:06:18;;;;;;;0.10;0.10;;;;;;;;;;6279938;22;20209;-87
2022/01/13 09:08:46;;;;;;;0.10;0.10;;;;;;;;;;6281245;22;20022;-85
2022/01/13 09:11:13;;;;;;;0.10;0.10;;;;;;;;;;6290546;22;20012;-86
2022/01/13 09:13:40;;;;;;;0.10;0.10;;;;;;;;;;6255207;22;20046;-86
2022/01/13 09:16:16;;;;;;;0.10;0.10;;;;;;;;;;6280480;22;20065;-86
2022/01/13 09:21:25;;;;;;;0.00;0.00;;;4.00;99.90;;;;;;6280572;22;20019;-86
2022/01/13 09:23:52;;;;;;;0.10;0.10;;;4.10;99.90;;;;;;6280298;22;20026;-86
2022/01/13 09:26:19;;;;;;;0.10;0.10;;;4.00;99.90;;;;;;6307479;22;20260;-86
2022/01/13 09:28:46;;;;;;;0.10;0.10;;;3.90;99.90;;;;;;6280206;22;20016;-86
2022/01/13 09:31:13;;;;;;;0.00;0.00;;;3.70;99.90;;;;;;6253976;22;20341;-86
2022/01/13 09:33:40;;;;;;;0.10;0.10;;;3.70;99.90;;;;;;6307678;22;20015;-86
2022/01/13 09:36:07;;;;;;;0.10;0.10;;;3.80;99.90;;;;;;6254451;22;20019;-86
2022/01/13 09:38:35;;;;;;;0.10;0.10;;;3.90;99.90;;;;;;6254997;22;20019;-86
2022/01/13 09:41:03;;;;;;;0.00;0.00;;;;;;;;;;6253363;22;20480;-86
2022/01/13 09:43:30;;;;;;;0.10;0.10;;;4.10;99.90;;;;;;6254737;22;20465;-86
2022/01/13 09:45:58;;;;;;;0.10;0.10;;;4.20;99.90;;;;;;6280133;22;20102;-86
2022/01/13 09:48:27;;;;;;;0.10;0.10;;;4.20;99.90;;;;;;6307653;22;20015;-86
2022/01/13 09:50:54;;;;;;;0.10;0.10;;;4.10;99.90;;;;;;6307003;22;20076;-87
2022/01/13 09:53:21;;;;;;;0.10;0.10;;;4.00;99.90;;;;;;6254754;22;20019;-86
2022/01/13 09:55:49;;;;;;;0.10;0.10;;;3.90;99.90;;;;;;6280684;22;20024;-85
2022/01/13 09:58:16;;;;;;;0.10;0.10;;;;;;;;;;6280005;22;20388;-86
2022/01/13 10:00:44;;;;;;;0.10;0.10;;;3.80;99.90;;;;;;6279912;22;20019;-86
2022/01/13 10:03:13;;;;;;;0.10;0.10;;;3.70;99.90;;;;;;6307068;22;20030;-86
2022/01/13 10:05:48;;;;;;;0.10;0.10;;;3.80;99.90;;;;;;6281074;22;20086;-86
2022/01/13 10:08:15;;;;;;;0.10;0.10;;;;;;;;;;6280321;22;20054;-86
2022/01/13 10:10:43;;;;;;;0.10;0.10;;;;;;;;;;6280013;22;20073;-87
2022/01/13 10:13:15;;;;;;;0.10;0.10;;;3.90;99.90;;;;;;6279738;22;20011;-86
2022/01/13 10:18:40;;;;;;;0.00;0.00;;;4.10;99.90;;;;;;6306188;22;20038;-88
2022/01/13 10:21:09;;;;;;;0.10;0.10;;;4.00;99.90;;;;;;6280414;22;20383;-87
2022/01/13 10:23:36;;;;;;;0.10;0.10;;;4.00;99.90;;;;;;6254208;22;20027;-86
2022/01/13 10:26:14;;;;;;;0.10;0.10;;;4.20;99.90;;;;;;6280709;22;20019;-86
2022/01/13 10:28:50;;;;;;;0.10;0.10;;;4.10;99.90;;;;;;6280034;22;20446;-87
2022/01/13 10:31:17;;;;;;;0.10;0.10;;;4.10;99.90;;;;;;6278756;22;20388;-87
2022/01/13 10:33:44;;;;;;;0.10;0.10;;;4.10;99.90;;;;;;6254601;22;20019;-86
2022/01/13 10:36:14;;;;;;;0.10;0.10;;;4.10;99.90;;;;;;6279784;22;20026;-87
2022/01/13 10:38:52;;;;;;;0.10;0.10;;;4.10;99.90;;;;;;6280670;22;20386;-86
2022/01/13 10:41:29;;;;;;;0.10;0.10;;;4.10;99.90;;;;;;6252143;22;20011;-88
2022/01/13 10:44:15;;;;;;;0.10;0.10;;;4.00;99.90;;;;;;6257006;22;20350;-86
2022/01/13 10:46:54;;;;;;;;;;;4.00;99.90;;;;;;6280003;22;20453;-87
2022/01/13 10:49:30;;;;;;;0.10;0.10;;;4.10;99.90;;;;;;6279288;22;19923;-86
2022/01/13 10:52:16;;;;;;;0.10;0.10;;;4.20;99.90;;;;;;6279475;22;20015;-86
2022/01/13 10:54:43;;;;;;;0.10;0.10;;;4.20;99.90;;;;;;6280803;22;20446;-87
2022/01/13 10:57:21;;;;;;;0.10;0.10;;;4.20;99.90;;;;;;6281936;22;20072;-87
2022/01/13 10:59:50;;;;;;;0.10;0.10;;;4.10;99.90;;;;;;6254640;22;20019;-87
2022/01/13 11:02:18;;;;;;;0.10;0.10;;;4.10;99.90;;;;;;6317993;22;20019;-86
2022/01/13 11:04:45;;;;;;;0.10;0.10;;;4.10;99.90;;;;;;6307799;22;20094;-87
2022/01/13 11:07:13;;;;;;;0.20;0.20;;;4.10;99.90;;;;;;6252464;22;20468;-87
2022/01/13 11:09:43;;;;;;;0.10;0.10;;;4.10;99.90;;;;;;6280471;22;20019;-86
2022/01/13 11:12:10;;;;;;;0.10;0.10;;;4.10;99.90;;;;;;6279894;22;20011;-86
2022/01/13 11:14:42;;;;;;;0.10;0.10;;;4.10;99.90;;;;;;6280147;22;20023;-87
2022/01/13 11:17:11;;;;;;;0.10;0.10;;;4.10;99.90;;;;;;6280046;22;20015;-86
2022/01/13 11:19:44;;;;;;;0.10;0.10;;;4.20;99.90;;;;;;6254400;22;20023;-86
2022/01/13 11:22:12;;;;;;;0.10;0.10;;;4.00;99.90;;;;;;6279358;22;20249;-86
2022/01/13 11:24:39;;;;;;;0.10;0.10;;;3.90;99.90;;;;;;6280422;22;20405;-86
2022/01/13 11:27:07;;;;;;;0.10;0.10;;;3.90;99.90;;;;;;6277594;22;20088;-86
2022/01/13 11:29:35;;;;;;;0.10;0.10;;;4.00;99.90;;;;;;6279649;22;20020;-86
2022/01/13 11:32:02;;;;;;;0.10;0.10;;;4.00;99.90;;;;;;6279195;22;20085;-86
2022/01/13 11:34:31;;;;;;;0.10;0.10;;;4.10;99.90;;;;;;6290075;22;20057;-86
2022/01/13 11:36:58;;;;;;;0.10;0.10;;;4.10;99.90;;;;;;6316650;22;20015;-86
2022/01/13 11:39:36;;;;;;;0.10;0.10;;;4.20;99.90;;;;;;6252913;22;20019;-87
2022/01/13 11:42:10;;;;;;;0.10;0.10;;;4.20;99.90;;;;;;6280742;22;20504;-90
2022/01/13 11:44:38;;;;;;;0.10;0.10;;;4.20;99.90;;;;;;6280031;22;20027;-86
2022/01/13 11:47:17;;;;;;;0.10;0.10;;;4.20;99.90;;;;;;6254934;22;20019;-86
2022/01/13 11:50:05;;;;;;;0.10;0.10;;;4.30;99.90;;;;;;6306123;22;20069;-86
2022/01/13 11:52:42;;;;;;;0.10;0.10;;;4.30;99.90;;;;;;6279339;22;20038;-86
2022/01/13 11:55:23;;;;;;;0.10;0.10;;;4.30;99.90;;;;;;6279881;22;20027;-86
2022/01/13 11:58:12;;;;;;;0.00;0.00;;;4.40;99.90;;;;;;6277129;22;20180;-87
2022/01/13 12:00:41;;;;;;;0.00;0.00;;;4.40;99.90;;;;;;6273458;22;20536;-87
2022/01/13 12:03:26;;;;;;;0.03;0.03;;;4.30;99.90;;;;;;6302198;22;20011;-87
2022/01/13 12:05:57;;;;;;;0.10;0.10;;;4.20;99.90;;;;;;6254251;22;20250;-86
2022/01/13 12:08:48;;;;;;;0.10;0.10;;;5.10;99.90;;;;;;6253926;22;20023;-85
2022/01/13 12:11:36;;;;;;;0.10;0.10;;;4.30;99.90;;;;;;6279256;22;20314;-86
2022/01/13 12:14:03;;;;;;;0.10;0.10;;;;;;;;;;6279225;22;20015;-86
2022/01/13 12:16:50;;;;;;;0.10;0.10;;;4.10;99.90;;;;;;6250868;22;20023;-86
2022/01/13 12:19:28;;;;;;;0.10;0.10;;;4.10;99.90;;;;;;6278790;22;20015;-86
2022/01/13 12:22:03;;;;;;;0.10;0.10;;;4.30;99.90;;;;;;6278642;22;20008;-86
2022/01/13 12:24:48;;;;;;;0.10;0.10;;;4.30;99.90;;;;;;6282209;22;20076;-86
2022/01/13 12:27:16;;;;;;;0.10;0.10;;;4.30;99.90;;;;;;6280521;22;20519;-86
2022/01/13 12:29:45;;;;;;;0.10;0.10;;;4.40;99.90;;;;;;6253990;22;20026;-85
2022/01/13 12:32:14;;;;;;;0.10;0.10;;;;;;;;;;6280511;22;20016;-86
2022/01/13 12:34:47;;;;;;;0.05;0.05;;;4.40;99.90;;;;;;6256264;22;20250;-86
2022/01/13 12:37:25;;;;;;;0.10;0.10;;;4.40;99.90;;;;;;6280936;22;20023;-86
2022/01/13 12:39:58;;;;;;;0.10;0.10;;;4.30;99.90;;;;;;6320144;22;20061;-86
2022/01/13 12:42:32;;;;;;;0.10;0.10;;;4.30;99.90;;;;;;6281612;22;20323;-86
2022/01/13 12:47:46;;;;;;;0.10;0.10;;;4.60;99.90;;;;;;6280672;22;20050;-85
2022/01/13 12:50:15;;;;;;;0.10;0.10;;;4.80;99.90;;;;;;6302395;22;20026;-87
2022/01/13 12:52:44;;;;;;;0.10;0.10;;;4.80;99.90;;;;;;6279501;22;20064;-86
2022/01/13 12:55:11;;;;;;;0.10;0.10;;;4.70;99.90;;;;;;6254302;22;20072;-86
2022/01/13 12:57:50;;;;;;;0.10;0.10;;;4.70;99.90;;;;;;6279406;22;20023;-87
2022/01/13 13:00:20;;;;;;;0.10;0.10;;;4.80;99.90;;;;;;6279263;22;20059;-85
2022/01/13 13:02:57;;;;;;;0.10;0.10;;;4.70;99.90;;;;;;6291622;22;20012;-86
2022/01/13 13:05:46;;;;;;;0.10;0.10;;;5.20;99.90;;;;;;6278172;22;20382;-86
2022/01/13 13:08:17;;;;;;;0.00;0.00;;;4.80;99.90;;;;;;6267024;22;20092;-86
2022/01/13 13:10:47;;;;;;;0.10;0.10;;;4.70;99.90;;;;;;6285442;22;20561;-88
2022/01/13 13:13:16;;;;;;;0.10;0.10;;;;;;;;;;6274621;22;20327;-86
2022/01/13 13:15:51;;;;;;;0.10;0.10;;;4.90;99.90;;;;;;6275142;22;20019;-86
2022/01/13 13:18:21;;;;;;;0.10;0.10;;;4.90;99.90;;;;;;6276201;22;20019;-87
2022/01/13 13:20:48;;;;;;;0.10;0.10;;;5.00;99.90;;;;;;6308351;22;20026;-86
2022/01/13 13:23:21;;;;;;;0.10;0.10;;;4.90;99.90;;;;;;6279150;22;20023;-86
2022/01/13 13:25:51;;;;;;;0.10;0.10;;;4.70;99.90;;;;;;6288868;22;20076;-85
2022/01/13 13:28:31;;;;;;;0.10;0.10;;;4.60;99.90;;;;;;6279302;22;20023;-86
2022/01/13 13:31:02;;;;;;;0.10;0.10;;;4.70;99.90;;;;;;6278012;22;20018;-85
2022/01/13 13:33:48;;;;;;;0.10;0.10;;;4.70;99.90;;;;;;6281974;22;20073;-85
2022/01/13 13:36:17;;;;;;;0.10;0.10;;;4.70;99.90;;;;;;6280175;22;20019;-86
2022/01/13 13:39:05;;;;;;;0.17;0.17;;;4.80;99.90;;;;;;6308006;22;20023;-87
2022/01/13 13:41:34;;;;;;;0.10;0.10;;;4.80;99.90;;;;;;6254816;22;20019;-87
2022/01/13 13:44:15;;;;;;;0.10;0.10;;;4.40;99.90;;;;;;6282201;22;20023;-88
2022/01/13 13:46:49;;;;;;;0.10;0.10;;;4.40;99.90;;;;;;6279799;22;20023;-87
2022/01/13 13:49:16;;;;;;;0.10;0.10;;;4.60;99.90;;;;;;6279888;22;20015;-87
2022/01/13 13:51:43;;;;;;;0.10;0.10;;;4.70;99.90;;;;;;6281321;22;20029;-87
2022/01/13 13:54:18;;;;;;;0.10;0.10;;;4.40;99.90;;;;;;6290951;22;20045;-88
2022/01/13 13:56:47;;;;;;;0.10;0.10;;;4.40;99.90;;;;;;6254840;22;20030;-88
2022/01/13 13:59:18;;;;;;;0.08;0.08;;;4.30;99.90;;;;;;6254962;22;20023;-87
2022/01/13 14:02:10;;;;;;;0.10;0.10;;;4.50;99.90;;;;;;6279971;22;20023;-87
2022/01/13 14:04:46;;;;;;;0.10;0.10;;;4.50;99.90;;;;;;6279632;22;20349;-88
2022/01/13 14:07:20;;;;;;;0.10;0.10;;;4.60;99.90;;;;;;6254600;22;20254;-87
2022/01/13 14:10:04;;;;;;;0.10;0.10;;;4.60;99.90;;;;;;6254668;22;20465;-87
2022/01/13 14:12:34;;;;;;;0.10;0.10;;;4.50;99.90;;;;;;6307349;22;20026;-87
2022/01/13 14:15:36;;;;;;;0.10;0.10;;;4.60;99.90;;;;;;6280062;22;20476;-87
2022/01/13 14:18:15;;;;;;;0.10;0.10;;;4.60;99.90;;;;;;6279922;22;20392;-86
2022/01/13 14:20:47;;;;;;;0.10;0.10;;;4.70;99.90;;;;;;6254899;22;20019;-87
2022/01/13 14:23:17;;;;;;;0.10;0.10;;;4.70;99.90;;;;;;6281144;22;20031;-87
2022/01/13 14:25:47;;;;;;;0.10;0.10;;;4.70;99.90;;;;;;6254256;22;20022;-86
2022/01/13 14:28:25;;;;;;;0.10;0.10;;;4.50;99.90;;;;;;6255045;22;20026;-88
2022/01/13 14:31:01;;;;;;;0.10;0.10;;;4.60;99.90;;;;;;6308373;22;20085;-87
2022/01/13 14:33:32;;;;;;;0.10;0.10;;;4.70;99.90;;;;;;6282766;22;20034;-87
2022/01/13 14:36:11;;;;;;;0.10;0.10;;;4.90;99.90;;;;;;6254398;22;20015;-87
2022/01/13 14:38:41;;;;;;;0.10;0.10;;;4.90;99.90;;;;;;6253807;22;20019;-87
